sensor_id;sensor_type;location;lat;lon;timestamp;temperature;humidity
54516;DHT22;40422;45.892;4.738;2022-12-07T04:02:13;4.10;99.90
54516;DHT22;40422;45.892;4.738;2022-12-07T04:04:39;4.20;99.90
54516;DHT22;40422;45.892;4.738;2022-12-07T04:07:05;4.10;99.90
54516;DHT22;40422;45.892;4.738;2022-12-07T04:09:31;4.10;99.90
54516;DHT22;40422;45.892;4.738;2022-12-07T04:11:56;4.10;99.90
54516;DHT22;40422;45.892;4.738;2022-12-07T04:14:22;4.10;99.90
54516;DHT22;40422;45.892;4.738;2022-12-07T04:16:51;4.10;99.90
54516;DHT22;40422;45.892;4.738;2022-12-07T04:19:19;4.10;99.90
54516;DHT22;40422;45.892;4.738;2022-12-07T04:24:34;4.10;99.90
54516;DHT22;40422;45.892;4.738;2022-12-07T04:27:00;4.10;99.90
54516;DHT22;40422;45.892;4.738;2022-12-07T04:29:26;4.10;99.90
54516;DHT22;40422;45.892;4.738;2022-12-07T04:31:52;4.00;99.90
54516;DHT22;40422;45.892;4.738;2022-12-07T04:34:18;4.00;99.90
54516;DHT22;40422;45.892;4.738;2022-12-07T04:36:46;4.00;99.90
54516;DHT22;40422;45.892;4.738;2022-12-07T04:39:23;4.00;99.90
54516;DHT22;40422;45.892;4.738;2022-12-07T04:41:49;4.00;99.90
54516;DHT22;40422;45.892;4.738;2022-12-07T04:44:15;4.00;99.90
54516;DHT22;40422;45.892;4.738;2022-12-07T04:46:42;4.00;99.90
54516;DHT22;40422;45.892;4.738;2022-12-07T04:49:08;3.90;99.90
54516;DHT22;40422;45.892;4.738;2022-12-07T04:51:34;3.90;99.90
54516;DHT22;40422;45.892;4.738;2022-12-07T04:53:59;3.90;99.90
54516;DHT22;40422;45.892;4.738;2022-12-07T04:56:25;3.90;99.90
54516;DHT22;40422;45.892;4.738;2022-12-07T04:58:52;3.90;99.90
54516;DHT22;40422;45.892;4.738;2022-12-07T05:01:19;3.90;99.90
54516;DHT22;40422;45.892;4.738;2022-12-07T05:03:44;3.80;99.90
54516;DHT22;40422;45.892;4.738;2022-12-07T05:06:11;3.80;99.90
54516;DHT22;40422;45.892;4.738;2022-12-07T05:08:37;3.90;99.90
54516;DHT22;40422;45.892;4.738;2022-12-07T05:11:04;3.90;99.90
54516;DHT22;40422;45.892;4.738;2022-12-07T05:13:31;3.90;99.90
54516;DHT22;40422;45.892;4.738;2022-12-07T05:15:57;3.90;99.90
54516;DHT22;40422;45.892;4.738;2022-12-07T05:18:23;3.90;99.90
54516;DHT22;40422;45.892;4.738;2022-12-07T05:20:48;3.90;99.90
54516;DHT22;40422;45.892;4.738;2022-12-07T05:23:14;3.90;99.90
54516;DHT22;40422;45.892;4.738;2022-12-07T05:25:40;3.90;99.90
54516;DHT22;40422;45.892;4.738;2022-12-07T05:28:06;3.90;99.90
54516;DHT22;40422;45.892;4.738;2022-12-07T05:30:32;4.00;99.90
54516;DHT22;40422;45.892;4.738;2022-12-07T05:32:58;4.00;99.90
54516;DHT22;40422;45.892;4.738;2022-12-07T05:35:23;4.00;99.90
54516;DHT22;40422;45.892;4.738;2022-12-07T05:37:49;4.00;99.90
54516;DHT22;40422;45.892;4.738;2022-12-07T05:40:15;4.00;99.90
54516;DHT22;40422;45.892;4.738;2022-12-07T05:42:41;4.10;99.90
54516;DHT22;40422;45.892;4.738;2022-12-07T05:45:08;4.10;99.90
54516;DHT22;40422;45.892;4.738;2022-12-07T05:47:34;4.10;99.90
54516;DHT22;40422;45.892;4.738;2022-12-07T05:50:00;4.10;99.90
54516;DHT22;40422;45.892;4.738;2022-12-07T05:52:25;4.10;99.90
54516;DHT22;40422;45.892;4.738;2022-12-07T05:54:51;4.10;99.90
54516;DHT22;40422;45.892;4.738;2022-12-07T05:57:17;4.20;99.90
54516;DHT22;40422;45.892;4.738;2022-12-07T05:59:43;4.20;99.90
54516;DHT22;40422;45.892;4.738;2022-12-07T06:02:12;4.30;99.90
54516;DHT22;40422;45.892;4.738;2022-12-07T06:04:40;4.30;99.90
54516;DHT22;40422;45.892;4.738;2022-12-07T06:07:06;4.30;99.90
54516;DHT22;40422;45.892;4.738;2022-12-07T06:09:32;4.30;99.90
54516;DHT22;40422;45.892;4.738;2022-12-07T06:11:58;4.40;99.90
54516;DHT22;40422;45.892;4.738;2022-12-07T06:14:43;4.40;99.90
54516;DHT22;40422;45.892;4.738;2022-12-07T06:17:09;4.40;99.90
54516;DHT22;40422;45.892;4.738;2022-12-07T06:19:35;4.50;99.90
54516;DHT22;40422;45.892;4.738;2022-12-07T06:22:02;4.50;99.90
54516;DHT22;40422;45.892;4.738;2022-12-07T06:24:28;4.50;99.90
54516;DHT22;40422;45.892;4.738;2022-12-07T06:26:54;4.50;99.90
54516;DHT22;40422;45.892;4.738;2022-12-07T06:29:20;4.50;99.90
54516;DHT22;40422;45.892;4.738;2022-12-07T06:31:47;4.40;99.90
54516;DHT22;40422;45.892;4.738;2022-12-07T06:34:18;4.40;99.90
54516;DHT22;40422;45.892;4.738;2022-12-07T06:36:45;4.40;99.90
54516;DHT22;40422;45.892;4.738;2022-12-07T06:39:11;4.50;99.90
54516;DHT22;40422;45.892;4.738;2022-12-07T06:41:38;4.50;99.90
54516;DHT22;40422;45.892;4.738;2022-12-07T06:44:05;4.50;99.90
54516;DHT22;40422;45.892;4.738;2022-12-07T06:46:31;4.40;99.90
54516;DHT22;40422;45.892;4.738;2022-12-07T06:48:57;4.40;99.90
54516;DHT22;40422;45.892;4.738;2022-12-07T06:51:23;4.40;99.90
54516;DHT22;40422;45.892;4.738;2022-12-07T06:53:48;4.30;99.90
54516;DHT22;40422;45.892;4.738;2022-12-07T06:56:14;4.30;99.90
54516;DHT22;40422;45.892;4.738;2022-12-07T06:58:40;4.30;99.90
54516;DHT22;40422;45.892;4.738;2022-12-07T07:01:14;4.30;99.90
54516;DHT22;40422;45.892;4.738;2022-12-07T07:03:40;4.30;99.90
54516;DHT22;40422;45.892;4.738;2022-12-07T07:06:07;4.40;99.90
54516;DHT22;40422;45.892;4.738;2022-12-07T07:08:36;4.40;99.90
54516;DHT22;40422;45.892;4.738;2022-12-07T07:11:03;4.40;99.90
54516;DHT22;40422;45.892;4.738;2022-12-07T07:13:28;4.40;99.90
54516;DHT22;40422;45.892;4.738;2022-12-07T07:15:54;4.40;99.90
54516;DHT22;40422;45.892;4.738;2022-12-07T07:18:20;4.40;99.90
54516;DHT22;40422;45.892;4.738;2022-12-07T07:20:46;4.40;99.90
54516;DHT22;40422;45.892;4.738;2022-12-07T07:23:12;4.30;99.90
54516;DHT22;40422;45.892;4.738;2022-12-07T07:25:37;4.20;99.90
54516;DHT22;40422;45.892;4.738;2022-12-07T07:28:03;4.10;99.90
54516;DHT22;40422;45.892;4.738;2022-12-07T07:30:29;4.10;99.90
54516;DHT22;40422;45.892;4.738;2022-12-07T07:32:58;4.10;99.90
54516;DHT22;40422;45.892;4.738;2022-12-07T07:35:25;4.10;99.90
54516;DHT22;40422;45.892;4.738;2022-12-07T07:37:51;4.10;99.90
54516;DHT22;40422;45.892;4.738;2022-12-07T07:40:17;4.00;99.90
54516;DHT22;40422;45.892;4.738;2022-12-07T07:42:43;4.10;99.90
54516;DHT22;40422;45.892;4.738;2022-12-07T07:45:09;4.10;99.90
54516;DHT22;40422;45.892;4.738;2022-12-07T07:47:34;4.10;99.90
54516;DHT22;40422;45.892;4.738;2022-12-07T07:50:00;4.10;99.90
54516;DHT22;40422;45.892;4.738;2022-12-07T07:52:26;4.10;99.90
54516;DHT22;40422;45.892;4.738;2022-12-07T07:54:51;4.10;99.90
54516;DHT22;40422;45.892;4.738;2022-12-07T07:57:17;4.00;99.90
54516;DHT22;40422;45.892;4.738;2022-12-07T07:59:43;4.10;99.90
54516;DHT22;40422;45.892;4.738;2022-12-07T08:02:17;4.10;99.90
54516;DHT22;40422;45.892;4.738;2022-12-07T08:04:43;4.10;99.90
54516;DHT22;40422;45.892;4.738;2022-12-07T08:07:09;4.10;99.90
54516;DHT22;40422;45.892;4.738;2022-12-07T08:09:34;4.10;99.90
54516;DHT22;40422;45.892;4.738;2022-12-07T08:12:00;4.10;99.90
54516;DHT22;40422;45.892;4.738;2022-12-07T08:14:26;4.20;99.90
54516;DHT22;40422;45.892;4.738;2022-12-07T08:16:53;4.20;99.90
54516;DHT22;40422;45.892;4.738;2022-12-07T08:19:18;4.30;99.90
54516;DHT22;40422;45.892;4.738;2022-12-07T08:21:44;4.30;99.90
54516;DHT22;40422;45.892;4.738;2022-12-07T08:24:10;4.30;99.90
54516;DHT22;40422;45.892;4.738;2022-12-07T08:26:35;4.30;99.90
54516;DHT22;40422;45.892;4.738;2022-12-07T08:29:01;4.30;99.90
54516;DHT22;40422;45.892;4.738;2022-12-07T08:31:27;4.20;99.90
54516;DHT22;40422;45.892;4.738;2022-12-07T08:33:54;4.30;99.90
54516;DHT22;40422;45.892;4.738;2022-12-07T08:36:19;4.30;99.90
54516;DHT22;40422;45.892;4.738;2022-12-07T08:38:47;4.30;99.90
54516;DHT22;40422;45.892;4.738;2022-12-07T08:41:12;4.30;99.90
54516;DHT22;40422;45.892;4.738;2022-12-07T08:43:38;4.30;99.90
54516;DHT22;40422;45.892;4.738;2022-12-07T08:46:23;4.30;99.90
54516;DHT22;40422;45.892;4.738;2022-12-07T08:51:20;4.30;99.90
54516;DHT22;40422;45.892;4.738;2022-12-07T08:53:46;4.30;99.90
54516;DHT22;40422;45.892;4.738;2022-12-07T08:56:12;4.30;99.90
54516;DHT22;40422;45.892;4.738;2022-12-07T08:58:39;4.30;99.90
54516;DHT22;40422;45.892;4.738;2022-12-07T09:01:05;4.30;99.90
54516;DHT22;40422;45.892;4.738;2022-12-07T09:03:30;4.40;99.90
54516;DHT22;40422;45.892;4.738;2022-12-07T09:05:57;4.40;99.90
54516;DHT22;40422;45.892;4.738;2022-12-07T09:08:28;4.50;99.90
54516;DHT22;40422;45.892;4.738;2022-12-07T09:10:55;4.50;99.90
54516;DHT22;40422;45.892;4.738;2022-12-07T09:13:20;4.50;99.90
54516;DHT22;40422;45.892;4.738;2022-12-07T09:15:46;4.50;99.90
54516;DHT22;40422;45.892;4.738;2022-12-07T09:18:11;4.50;99.90
54516;DHT22;40422;45.892;4.738;2022-12-07T09:20:37;4.50;99.90
54516;DHT22;40422;45.892;4.738;2022-12-07T09:23:05;4.50;99.90
54516;DHT22;40422;45.892;4.738;2022-12-07T09:25:32;4.50;99.90
54516;DHT22;40422;45.892;4.738;2022-12-07T09:27:58;4.60;99.90
54516;DHT22;40422;45.892;4.738;2022-12-07T09:30:24;4.70;99.90
54516;DHT22;40422;45.892;4.738;2022-12-07T09:32:53;4.80;99.90
54516;DHT22;40422;45.892;4.738;2022-12-07T09:35:19;4.80;99.90
54516;DHT22;40422;45.892;4.738;2022-12-07T09:37:45;4.80;99.90
54516;DHT22;40422;45.892;4.738;2022-12-07T09:40:11;4.90;99.90
54516;DHT22;40422;45.892;4.738;2022-12-07T09:42:39;4.90;99.90
54516;DHT22;40422;45.892;4.738;2022-12-07T09:45:21;4.90;99.90
54516;DHT22;40422;45.892;4.738;2022-12-07T09:47:47;5.00;99.90
54516;DHT22;40422;45.892;4.738;2022-12-07T09:50:17;5.00;99.90
54516;DHT22;40422;45.892;4.738;2022-12-07T09:52:45;5.00;99.90
54516;DHT22;40422;45.892;4.738;2022-12-07T09:55:15;5.00;99.90
54516;DHT22;40422;45.892;4.738;2022-12-07T09:57:42;5.00;99.90
54516;DHT22;40422;45.892;4.738;2022-12-07T10:00:22;5.00;99.90
54516;DHT22;40422;45.892;4.738;2022-12-07T10:02:59;5.10;99.90
54516;DHT22;40422;45.892;4.738;2022-12-07T10:05:35;5.10;99.90
54516;DHT22;40422;45.892;4.738;2022-12-07T10:08:03;5.10;99.90
54516;DHT22;40422;45.892;4.738;2022-12-07T10:10:34;5.10;99.90
54516;DHT22;40422;45.892;4.738;2022-12-07T10:15:54;5.10;99.90
54516;DHT22;40422;45.892;4.738;2022-12-07T10:18:30;5.10;99.90
54516;DHT22;40422;45.892;4.738;2022-12-07T10:23:37;5.10;99.90
54516;DHT22;40422;45.892;4.738;2022-12-07T10:26:35;5.20;99.90
54516;DHT22;40422;45.892;4.738;2022-12-07T10:29:21;5.20;99.90
54516;DHT22;40422;45.892;4.738;2022-12-07T10:34:30;5.20;99.90
54516;DHT22;40422;45.892;4.738;2022-12-07T10:39:48;5.30;99.90
54516;DHT22;40422;45.892;4.738;2022-12-07T10:42:28;5.30;99.90
54516;DHT22;40422;45.892;4.738;2022-12-07T10:45:16;5.30;99.90
54516;DHT22;40422;45.892;4.738;2022-12-07T10:48:08;5.30;99.90
54516;DHT22;40422;45.892;4.738;2022-12-07T10:53:42;5.30;99.90
54516;DHT22;40422;45.892;4.738;2022-12-07T11:01:37;5.30;99.90
54516;DHT22;40422;45.892;4.738;2022-12-07T11:06:37;5.30;99.90
54516;DHT22;40422;45.892;4.738;2022-12-07T11:09:39;5.40;99.90
54516;DHT22;40422;45.892;4.738;2022-12-07T11:15:04;5.50;99.90
54516;DHT22;40422;45.892;4.738;2022-12-07T11:17:53;5.60;99.90
54516;DHT22;40422;45.892;4.738;2022-12-07T11:28:22;5.40;99.90
54516;DHT22;40422;45.892;4.738;2022-12-07T11:33:29;5.40;99.90
54516;DHT22;40422;45.892;4.738;2022-12-07T11:38:40;5.50;99.90
54516;DHT22;40422;45.892;4.738;2022-12-07T11:41:06;5.50;99.90
54516;DHT22;40422;45.892;4.738;2022-12-07T11:43:59;5.50;99.90
54516;DHT22;40422;45.892;4.738;2022-12-07T11:46:40;5.50;99.90
54516;DHT22;40422;45.892;4.738;2022-12-07T11:51:39;5.50;99.90
54516;DHT22;40422;45.892;4.738;2022-12-07T11:54:18;5.50;99.90
54516;DHT22;40422;45.892;4.738;2022-12-07T11:56:46;5.60;99.90
54516;DHT22;40422;45.892;4.738;2022-12-07T11:59:17;5.60;99.90
54516;DHT22;40422;45.892;4.738;2022-12-07T12:01:55;5.60;99.90
54516;DHT22;40422;45.892;4.738;2022-12-07T12:04:30;5.60;99.90
54516;DHT22;40422;45.892;4.738;2022-12-07T12:06:58;5.70;99.90
54516;DHT22;40422;45.892;4.738;2022-12-07T12:09:33;5.70;99.90
54516;DHT22;40422;45.892;4.738;2022-12-07T12:20:23;5.70;99.90
54516;DHT22;40422;45.892;4.738;2022-12-07T12:22:55;5.70;99.90
54516;DHT22;40422;45.892;4.738;2022-12-07T12:25:39;6.00;99.90
54516;DHT22;40422;45.892;4.738;2022-12-07T12:28:28;6.10;99.90
54516;DHT22;40422;45.892;4.738;2022-12-07T12:31:13;6.20;99.90
54516;DHT22;40422;45.892;4.738;2022-12-07T12:33:44;6.20;99.90
54516;DHT22;40422;45.892;4.738;2022-12-07T12:46:54;5.90;99.90
54516;DHT22;40422;45.892;4.738;2022-12-07T12:51:48;6.10;99.90
54516;DHT22;40422;45.892;4.738;2022-12-07T12:56:52;6.40;99.90
54516;DHT22;40422;45.892;4.738;2022-12-07T12:59:30;6.50;99.90
54516;DHT22;40422;45.892;4.738;2022-12-07T13:04:40;6.80;99.90
54516;DHT22;40422;45.892;4.738;2022-12-07T13:26:35;7.30;99.90
54516;DHT22;40422;45.892;4.738;2022-12-07T13:29:19;7.20;99.90
54516;DHT22;40422;45.892;4.738;2022-12-07T13:31:50;7.00;99.90
54516;DHT22;40422;45.892;4.738;2022-12-07T13:37:12;6.80;99.90
54516;DHT22;40422;45.892;4.738;2022-12-07T13:39:47;6.70;99.90
54516;DHT22;40422;45.892;4.738;2022-12-07T13:42:32;6.60;99.90
54516;DHT22;40422;45.892;4.738;2022-12-07T13:45:00;6.50;99.90
54516;DHT22;40422;45.892;4.738;2022-12-07T13:47:48;6.50;99.90
54516;DHT22;40422;45.892;4.738;2022-12-07T13:50:25;6.50;99.90
54516;DHT22;40422;45.892;4.738;2022-12-07T13:52:55;6.30;99.90
54516;DHT22;40422;45.892;4.738;2022-12-07T13:55:21;6.20;99.90
54516;DHT22;40422;45.892;4.738;2022-12-07T13:57:52;6.20;99.90
54516;DHT22;40422;45.892;4.738;2022-12-07T14:00:24;6.20;99.90
54516;DHT22;40422;45.892;4.738;2022-12-07T14:03:02;6.10;99.90
54516;DHT22;40422;45.892;4.738;2022-12-07T14:05:33;6.10;99.90
54516;DHT22;40422;45.892;4.738;2022-12-07T14:08:04;6.10;99.90
54516;DHT22;40422;45.892;4.738;2022-12-07T14:12:57;6.00;99.90
54516;DHT22;40422;45.892;4.738;2022-12-07T14:15:34;6.10;99.90
54516;DHT22;40422;45.892;4.738;2022-12-07T14:18:01;6.20;99.90
54516;DHT22;40422;45.892;4.738;2022-12-07T14:20:37;6.40;99.90
54516;DHT22;40422;45.892;4.738;2022-12-07T14:23:04;6.50;99.90
54516;DHT22;40422;45.892;4.738;2022-12-07T14:25:50;6.60;99.90
54516;DHT22;40422;45.892;4.738;2022-12-07T14:28:31;6.70;99.90
54516;DHT22;40422;45.892;4.738;2022-12-07T14:30:57;6.80;99.90
54516;DHT22;40422;45.892;4.738;2022-12-07T14:33:24;6.90;99.90
54516;DHT22;40422;45.892;4.738;2022-12-07T14:35:51;6.90;99.90
54516;DHT22;40422;45.892;4.738;2022-12-07T14:38:25;6.90;99.90
54516;DHT22;40422;45.892;4.738;2022-12-07T14:40:52;6.90;99.90
54516;DHT22;40422;45.892;4.738;2022-12-07T14:43:19;6.90;99.90
54516;DHT22;40422;45.892;4.738;2022-12-07T14:45:45;6.90;99.90
54516;DHT22;40422;45.892;4.738;2022-12-07T14:48:12;7.00;99.90
54516;DHT22;40422;45.892;4.738;2022-12-07T14:50:42;7.00;99.90
54516;DHT22;40422;45.892;4.738;2022-12-07T14:53:14;7.00;99.90
54516;DHT22;40422;45.892;4.738;2022-12-07T14:55:41;6.90;99.90
54516;DHT22;40422;45.892;4.738;2022-12-07T14:58:13;6.90;99.90
54516;DHT22;40422;45.892;4.738;2022-12-07T15:00:39;6.90;99.90
54516;DHT22;40422;45.892;4.738;2022-12-07T15:03:05;6.80;99.90
54516;DHT22;40422;45.892;4.738;2022-12-07T15:05:30;6.70;99.90
54516;DHT22;40422;45.892;4.738;2022-12-07T15:07:56;6.60;99.90
54516;DHT22;40422;45.892;4.738;2022-12-07T15:10:31;6.50;99.90
54516;DHT22;40422;45.892;4.738;2022-12-07T15:13:01;6.40;99.90
54516;DHT22;40422;45.892;4.738;2022-12-07T15:15:47;6.30;99.90
54516;DHT22;40422;45.892;4.738;2022-12-07T15:18:14;6.20;99.90
54516;DHT22;40422;45.892;4.738;2022-12-07T15:20:39;6.20;99.90
54516;DHT22;40422;45.892;4.738;2022-12-07T15:23:05;6.10;99.90
54516;DHT22;40422;45.892;4.738;2022-12-07T15:25:31;6.00;99.90
54516;DHT22;40422;45.892;4.738;2022-12-07T15:27:57;6.00;99.90
54516;DHT22;40422;45.892;4.738;2022-12-07T15:30:22;6.00;99.90
54516;DHT22;40422;45.892;4.738;2022-12-07T15:32:52;6.00;99.90
54516;DHT22;40422;45.892;4.738;2022-12-07T15:35:19;6.00;99.90
54516;DHT22;40422;45.892;4.738;2022-12-07T15:37:44;6.00;99.90
54516;DHT22;40422;45.892;4.738;2022-12-07T15:40:11;6.00;99.90
54516;DHT22;40422;45.892;4.738;2022-12-07T15:42:37;6.00;99.90
54516;DHT22;40422;45.892;4.738;2022-12-07T15:45:06;5.80;99.90
54516;DHT22;40422;45.892;4.738;2022-12-07T15:47:34;5.80;99.90
54516;DHT22;40422;45.892;4.738;2022-12-07T15:50:05;5.90;99.90
54516;DHT22;40422;45.892;4.738;2022-12-07T15:52:32;5.80;99.90
54516;DHT22;40422;45.892;4.738;2022-12-07T15:54:58;5.80;99.90
54516;DHT22;40422;45.892;4.738;2022-12-07T15:57:26;5.80;99.90
54516;DHT22;40422;45.892;4.738;2022-12-07T15:59:52;5.70;99.90
54516;DHT22;40422;45.892;4.738;2022-12-07T16:02:18;5.70;99.90
54516;DHT22;40422;45.892;4.738;2022-12-07T16:04:44;5.70;99.90
54516;DHT22;40422;45.892;4.738;2022-12-07T16:07:10;5.70;99.90
54516;DHT22;40422;45.892;4.738;2022-12-07T16:09:37;5.60;99.90
54516;DHT22;40422;45.892;4.738;2022-12-07T16:12:03;5.70;99.90
54516;DHT22;40422;45.892;4.738;2022-12-07T16:14:29;5.60;99.90
54516;DHT22;40422;45.892;4.738;2022-12-07T16:16:57;5.50;99.90
54516;DHT22;40422;45.892;4.738;2022-12-07T16:19:23;5.50;99.90
54516;DHT22;40422;45.892;4.738;2022-12-07T16:21:49;5.60;99.90
54516;DHT22;40422;45.892;4.738;2022-12-07T16:24:14;5.60;99.90
54516;DHT22;40422;45.892;4.738;2022-12-07T16:26:41;5.60;99.90
54516;DHT22;40422;45.892;4.738;2022-12-07T16:29:09;5.60;99.90
54516;DHT22;40422;45.892;4.738;2022-12-07T16:31:35;5.60;99.90
54516;DHT22;40422;45.892;4.738;2022-12-07T16:34:01;5.60;99.90
54516;DHT22;40422;45.892;4.738;2022-12-07T16:36:27;5.60;99.90
54516;DHT22;40422;45.892;4.738;2022-12-07T16:38:53;5.60;99.90
54516;DHT22;40422;45.892;4.738;2022-12-07T16:41:18;5.60;99.90
54516;DHT22;40422;45.892;4.738;2022-12-07T16:43:44;5.50;99.90
54516;DHT22;40422;45.892;4.738;2022-12-07T16:46:09;5.50;99.90
54516;DHT22;40422;45.892;4.738;2022-12-07T16:48:37;5.50;99.90
54516;DHT22;40422;45.892;4.738;2022-12-07T16:51:06;5.50;99.90
54516;DHT22;40422;45.892;4.738;2022-12-07T16:53:34;5.50;99.90
54516;DHT22;40422;45.892;4.738;2022-12-07T16:55:59;5.50;99.90
54516;DHT22;40422;45.892;4.738;2022-12-07T16:58:25;5.50;99.90
54516;DHT22;40422;45.892;4.738;2022-12-07T17:00:51;5.40;99.90
54516;DHT22;40422;45.892;4.738;2022-12-07T17:03:16;5.40;99.90
54516;DHT22;40422;45.892;4.738;2022-12-07T17:05:43;5.40;99.90
54516;DHT22;40422;45.892;4.738;2022-12-07T17:08:11;5.40;99.90
54516;DHT22;40422;45.892;4.738;2022-12-07T17:10:38;5.40;99.90
54516;DHT22;40422;45.892;4.738;2022-12-07T17:13:05;5.40;99.90
54516;DHT22;40422;45.892;4.738;2022-12-07T17:16:09;5.40;99.90
54516;DHT22;40422;45.892;4.738;2022-12-07T17:18:36;5.40;99.90
54516;DHT22;40422;45.892;4.738;2022-12-07T17:21:04;5.40;99.90
54516;DHT22;40422;45.892;4.738;2022-12-07T17:23:31;5.40;99.90
54516;DHT22;40422;45.892;4.738;2022-12-07T17:26:03;5.40;99.90
54516;DHT22;40422;45.892;4.738;2022-12-07T17:28:28;5.30;99.90
54516;DHT22;40422;45.892;4.738;2022-12-07T17:30:54;5.40;99.90
54516;DHT22;40422;45.892;4.738;2022-12-07T17:33:19;5.40;99.90
54516;DHT22;40422;45.892;4.738;2022-12-07T17:35:46;5.30;99.90
54516;DHT22;40422;45.892;4.738;2022-12-07T17:38:13;5.30;99.90
54516;DHT22;40422;45.892;4.738;2022-12-07T17:40:38;5.40;99.90
54516;DHT22;40422;45.892;4.738;2022-12-07T17:43:04;5.30;99.90
54516;DHT22;40422;45.892;4.738;2022-12-07T17:45:30;5.40;99.90
54516;DHT22;40422;45.892;4.738;2022-12-07T17:47:55;5.40;99.90
54516;DHT22;40422;45.892;4.738;2022-12-07T17:50:21;5.40;99.90
54516;DHT22;40422;45.892;4.738;2022-12-07T17:53:09;5.40;99.90
54516;DHT22;40422;45.892;4.738;2022-12-07T17:55:35;5.30;99.90
54516;DHT22;40422;45.892;4.738;2022-12-07T17:58:00;5.20;99.90
54516;DHT22;40422;45.892;4.738;2022-12-07T18:00:26;5.20;99.90
54516;DHT22;40422;45.892;4.738;2022-12-07T18:02:51;5.20;99.90
54516;DHT22;40422;45.892;4.738;2022-12-07T18:05:17;5.20;99.90
54516;DHT22;40422;45.892;4.738;2022-12-07T18:07:43;5.20;99.90
54516;DHT22;40422;45.892;4.738;2022-12-07T18:10:09;5.20;99.90
54516;DHT22;40422;45.892;4.738;2022-12-07T18:12:37;5.20;99.90
54516;DHT22;40422;45.892;4.738;2022-12-07T18:15:03;5.20;99.90
54516;DHT22;40422;45.892;4.738;2022-12-07T18:17:28;5.20;99.90
54516;DHT22;40422;45.892;4.738;2022-12-07T18:19:54;5.20;99.90
54516;DHT22;40422;45.892;4.738;2022-12-07T18:22:19;5.30;99.90
54516;DHT22;40422;45.892;4.738;2022-12-07T18:24:45;5.30;99.90
54516;DHT22;40422;45.892;4.738;2022-12-07T18:27:11;5.20;99.90
54516;DHT22;40422;45.892;4.738;2022-12-07T18:29:36;5.20;99.90
54516;DHT22;40422;45.892;4.738;2022-12-07T18:32:02;5.10;99.90
54516;DHT22;40422;45.892;4.738;2022-12-07T18:34:29;5.10;99.90
54516;DHT22;40422;45.892;4.738;2022-12-07T18:36:55;5.20;99.90
54516;DHT22;40422;45.892;4.738;2022-12-07T18:39:20;5.20;99.90
54516;DHT22;40422;45.892;4.738;2022-12-07T18:41:46;5.20;99.90
54516;DHT22;40422;45.892;4.738;2022-12-07T18:44:12;5.10;99.90
54516;DHT22;40422;45.892;4.738;2022-12-07T18:46:39;5.20;99.90
54516;DHT22;40422;45.892;4.738;2022-12-07T18:49:07;5.20;99.90
54516;DHT22;40422;45.892;4.738;2022-12-07T18:51:33;5.20;99.90
54516;DHT22;40422;45.892;4.738;2022-12-07T18:53:59;5.20;99.90
54516;DHT22;40422;45.892;4.738;2022-12-07T18:56:26;5.10;99.90
54516;DHT22;40422;45.892;4.738;2022-12-07T18:58:54;5.10;99.90
54516;DHT22;40422;45.892;4.738;2022-12-07T19:01:40;5.10;99.90
54516;DHT22;40422;45.892;4.738;2022-12-07T19:04:06;5.10;99.90
54516;DHT22;40422;45.892;4.738;2022-12-07T19:06:32;5.10;99.90
54516;DHT22;40422;45.892;4.738;2022-12-07T19:08:57;5.10;99.90
54516;DHT22;40422;45.892;4.738;2022-12-07T19:11:28;5.00;99.90
54516;DHT22;40422;45.892;4.738;2022-12-07T19:14:14;5.00;99.90
54516;DHT22;40422;45.892;4.738;2022-12-07T19:16:41;5.00;99.90
54516;DHT22;40422;45.892;4.738;2022-12-07T19:19:07;5.00;99.90
54516;DHT22;40422;45.892;4.738;2022-12-07T19:21:33;5.00;99.90
54516;DHT22;40422;45.892;4.738;2022-12-07T19:24:04;4.90;99.90
54516;DHT22;40422;45.892;4.738;2022-12-07T19:26:30;4.90;99.90
54516;DHT22;40422;45.892;4.738;2022-12-07T19:28:56;4.90;99.90
54516;DHT22;40422;45.892;4.738;2022-12-07T19:31:22;4.90;99.90
54516;DHT22;40422;45.892;4.738;2022-12-07T19:33:47;4.90;99.90
54516;DHT22;40422;45.892;4.738;2022-12-07T19:36:13;4.90;99.90
54516;DHT22;40422;45.892;4.738;2022-12-07T19:38:39;4.90;99.90
54516;DHT22;40422;45.892;4.738;2022-12-07T19:41:09;4.90;99.90
54516;DHT22;40422;45.892;4.738;2022-12-07T19:43:59;4.90;99.90
54516;DHT22;40422;45.892;4.738;2022-12-07T19:46:25;4.90;99.90
54516;DHT22;40422;45.892;4.738;2022-12-07T19:48:52;4.90;99.90
54516;DHT22;40422;45.892;4.738;2022-12-07T19:51:18;4.90;99.90
54516;DHT22;40422;45.892;4.738;2022-12-07T19:53:44;4.90;99.90
54516;DHT22;40422;45.892;4.738;2022-12-07T19:56:16;4.90;99.90
54516;DHT22;40422;45.892;4.738;2022-12-07T19:58:42;4.90;99.90
54516;DHT22;40422;45.892;4.738;2022-12-07T20:01:08;4.90;99.90
54516;DHT22;40422;45.892;4.738;2022-12-07T20:03:34;4.90;99.90
54516;DHT22;40422;45.892;4.738;2022-12-07T20:05:59;4.80;99.90
54516;DHT22;40422;45.892;4.738;2022-12-07T20:08:25;4.80;99.90
54516;DHT22;40422;45.892;4.738;2022-12-07T20:10:51;4.80;99.90
54516;DHT22;40422;45.892;4.738;2022-12-07T20:13:17;4.80;99.90
54516;DHT22;40422;45.892;4.738;2022-12-07T20:16:03;4.80;99.90
54516;DHT22;40422;45.892;4.738;2022-12-07T20:18:29;4.80;99.90
54516;DHT22;40422;45.892;4.738;2022-12-07T20:20:56;4.80;99.90
54516;DHT22;40422;45.892;4.738;2022-12-07T20:23:26;4.80;99.90
54516;DHT22;40422;45.892;4.738;2022-12-07T20:25:51;4.80;99.90
54516;DHT22;40422;45.892;4.738;2022-12-07T20:28:17;4.80;99.90
54516;DHT22;40422;45.892;4.738;2022-12-07T20:30:50;4.80;99.90
54516;DHT22;40422;45.892;4.738;2022-12-07T20:33:17;4.80;99.90
54516;DHT22;40422;45.892;4.738;2022-12-07T20:35:43;4.70;99.90
54516;DHT22;40422;45.892;4.738;2022-12-07T20:38:10;4.70;99.90
54516;DHT22;40422;45.892;4.738;2022-12-07T20:40:36;4.70;99.90
54516;DHT22;40422;45.892;4.738;2022-12-07T20:43:02;4.70;99.90
54516;DHT22;40422;45.892;4.738;2022-12-07T20:45:28;4.70;99.90
54516;DHT22;40422;45.892;4.738;2022-12-07T20:47:54;4.70;99.90
54516;DHT22;40422;45.892;4.738;2022-12-07T20:50:20;4.70;99.90
54516;DHT22;40422;45.892;4.738;2022-12-07T20:52:45;4.70;99.90
54516;DHT22;40422;45.892;4.738;2022-12-07T20:55:11;4.70;99.90
54516;DHT22;40422;45.892;4.738;2022-12-07T20:57:37;4.70;99.90
54516;DHT22;40422;45.892;4.738;2022-12-07T21:00:06;4.70;99.90
